createdAt,value
2018-07-04T00:01:41.171Z,15.87
2018-07-04T00:05:05.145Z,15.65
2018-07-04T00:08:29.156Z,15.55
2018-07-04T00:11:53.564Z,15.52
2018-07-04T00:15:17.859Z,15.58
2018-07-04T00:18:41.669Z,15.62
2018-07-04T00:22:06.049Z,15.62
2018-07-04T00:25:30.534Z,15.58
2018-07-04T00:28:54.652Z,15.53
2018-07-04T00:32:19.015Z,16.07
2018-07-04T00:35:43.110Z,15.44
2018-07-04T00:39:07.370Z,15.28
2018-07-04T00:42:33.818Z,15.17
2018-07-04T00:45:58.171Z,15.01
2018-07-04T00:49:23.106Z,14.88
2018-07-04T00:52:47.322Z,14.77
2018-07-04T00:56:11.936Z,14.68
2018-07-04T00:59:36.019Z,15.33
2018-07-04T01:03:00.378Z,14.81
2018-07-04T01:06:24.553Z,14.64
2018-07-04T01:09:48.873Z,14.53
2018-07-04T01:13:12.980Z,14.42
2018-07-04T01:16:37.161Z,14.25
2018-07-04T01:20:01.448Z,14.85
2018-07-04T01:23:26.118Z,14.25
2018-07-04T01:26:51.033Z,14.10
2018-07-04T01:30:14.665Z,14.05
2018-07-04T01:33:38.564Z,14.79
2018-07-04T01:37:02.939Z,15.11
2018-07-04T01:40:27.139Z,14.65
2018-07-04T01:43:51.152Z,14.57
2018-07-04T01:47:15.330Z,14.47
2018-07-04T01:50:39.486Z,14.36
2018-07-04T01:54:04.298Z,14.29
2018-07-04T01:57:28.817Z,14.21
2018-07-04T02:00:53.085Z,14.08
2018-07-04T02:04:17.348Z,13.98
2018-07-04T02:07:41.616Z,13.87
2018-07-04T02:11:06.555Z,14.50
2018-07-04T02:14:30.792Z,13.93
2018-07-04T02:17:54.863Z,13.84
2018-07-04T02:21:21.561Z,13.83
2018-07-04T02:24:46.761Z,13.80
2018-07-04T02:28:11.291Z,13.78
2018-07-04T02:31:37.765Z,13.76
2018-07-04T02:35:01.953Z,13.78
2018-07-04T02:38:26.680Z,14.44
2018-07-04T02:41:50.994Z,14.01
2018-07-04T02:45:15.606Z,13.93
2018-07-04T02:48:42.427Z,13.90
2018-07-04T02:52:07.024Z,13.86
2018-07-04T02:55:31.770Z,13.81
2018-07-04T02:58:56.091Z,13.75
2018-07-04T03:02:20.291Z,13.67
2018-07-04T03:05:44.434Z,13.60
2018-07-04T03:09:12.851Z,13.57
2018-07-04T03:12:36.862Z,13.52
2018-07-04T03:16:01.968Z,13.50
2018-07-04T03:19:26.363Z,13.58
2018-07-04T03:22:50.764Z,14.30
2018-07-04T03:26:14.985Z,14.50
2018-07-04T03:29:40.105Z,13.97
2018-07-04T03:33:04.539Z,13.87
2018-07-04T03:36:28.931Z,13.81
2018-07-04T03:39:53.565Z,13.78
2018-07-04T03:43:21.157Z,13.78
2018-07-04T03:46:47.169Z,13.81
2018-07-04T03:50:12.660Z,13.81
2018-07-04T03:53:41.521Z,13.82
2018-07-04T03:57:07.308Z,13.82
2018-07-04T04:00:34.545Z,13.84
2018-07-04T04:03:58.892Z,13.88
2018-07-04T04:07:23.087Z,13.90
2018-07-04T04:10:47.966Z,13.89
2018-07-04T04:14:13.324Z,13.89
2018-07-04T04:17:38.439Z,13.90
2018-07-04T04:21:02.662Z,13.98
2018-07-04T04:24:27.249Z,14.07
2018-07-04T04:27:51.667Z,14.15
2018-07-04T04:31:17.134Z,14.25
2018-07-04T04:34:41.375Z,14.34
2018-07-04T04:38:10.229Z,15.17
2018-07-04T04:41:34.894Z,14.81
2018-07-04T04:45:00.190Z,15.58
2018-07-04T04:48:25.797Z,15.21
2018-07-04T04:51:50.503Z,15.24
2018-07-04T04:55:15.041Z,15.32
2018-07-04T04:58:39.584Z,15.40
2018-07-04T05:02:04.446Z,15.50
2018-07-04T05:05:28.845Z,15.64
2018-07-04T05:08:53.588Z,15.78
2018-07-04T05:12:17.950Z,15.90
2018-07-04T05:15:42.524Z,16.02
2018-07-04T05:19:06.352Z,16.16
2018-07-04T05:22:30.327Z,16.35
2018-07-04T05:25:54.478Z,16.58
2018-07-04T05:29:18.700Z,16.77
2018-07-04T05:32:43.279Z,17.03
2018-07-04T05:36:07.705Z,17.19
2018-07-04T05:39:31.570Z,18.01
2018-07-04T05:42:56.476Z,17.79
2018-07-04T05:46:21.186Z,17.94
2018-07-04T05:49:45.326Z,18.16
2018-07-04T05:53:09.397Z,19.04
2018-07-04T05:56:33.841Z,18.88
2018-07-04T05:59:57.712Z,19.11
2018-07-04T06:03:21.777Z,19.38
2018-07-04T06:06:45.735Z,20.30
2018-07-04T06:10:09.474Z,20.16
2018-07-04T06:13:33.568Z,20.33
2018-07-04T06:16:58.406Z,20.64
2018-07-04T06:20:22.663Z,20.91
2018-07-04T06:23:46.654Z,21.18
2018-07-04T06:27:11.023Z,21.48
2018-07-04T06:30:35.155Z,21.81
2018-07-04T06:33:59.251Z,22.12
2018-07-04T06:37:23.536Z,22.42
2018-07-04T06:40:00.724Z,22.74
2018-07-04T06:42:28.670Z,23.00
2018-07-04T06:44:56.494Z,23.26
2018-07-04T06:47:24.365Z,23.47
2018-07-04T06:49:52.307Z,23.68
2018-07-04T06:52:20.131Z,23.88
2018-07-04T06:54:48.099Z,24.72
2018-07-04T06:57:15.947Z,24.59
2018-07-04T06:59:43.842Z,24.70
2018-07-04T07:02:11.717Z,24.89
2018-07-04T07:05:17.778Z,25.13
2018-07-04T07:08:42.818Z,25.42
2018-07-04T07:12:06.832Z,25.69
2018-07-04T07:15:30.958Z,25.93
2018-07-04T07:18:55.215Z,26.08
2018-07-04T07:22:19.567Z,26.25
2018-07-04T07:25:43.577Z,26.42
2018-07-04T07:29:07.398Z,26.73
2018-07-04T07:32:31.522Z,27.07
2018-07-04T07:35:55.874Z,27.37
2018-07-04T07:39:20.294Z,28.37
2018-07-04T07:42:44.125Z,28.00
2018-07-04T07:46:07.956Z,28.16
2018-07-04T07:49:31.780Z,28.25
2018-07-04T07:52:55.662Z,28.33
2018-07-04T07:56:20.362Z,28.57
2018-07-04T07:59:44.295Z,28.74
2018-07-04T08:03:08.463Z,28.96
2018-07-04T08:06:32.520Z,29.11
2018-07-04T08:09:56.380Z,30.07
2018-07-04T08:13:20.437Z,29.55
2018-07-04T08:16:44.752Z,29.71
2018-07-04T08:20:08.868Z,29.91
2018-07-04T08:23:33.686Z,30.03
2018-07-04T08:26:58.049Z,31.19
2018-07-04T08:30:22.379Z,30.68
2018-07-04T08:33:46.966Z,30.74
2018-07-04T08:37:11.115Z,30.77
2018-07-04T08:40:35.513Z,30.90
2018-07-04T08:43:59.557Z,30.95
2018-07-04T08:47:24.933Z,32.08
2018-07-04T08:50:50.148Z,32.31
2018-07-04T08:54:14.367Z,31.59
2018-07-04T08:57:38.905Z,31.57
2018-07-04T09:01:02.884Z,32.75
2018-07-04T09:04:26.838Z,32.18
2018-07-04T09:07:56.712Z,32.31
2018-07-04T09:11:22.384Z,32.45
2018-07-04T09:14:47.399Z,33.60
2018-07-04T09:18:11.800Z,32.79
2018-07-04T09:21:37.629Z,32.70
2018-07-04T09:25:02.810Z,32.80
2018-07-04T09:28:45.933Z,32.79
2018-07-04T09:32:11.200Z,32.81
2018-07-04T09:35:41.091Z,32.79
2018-07-04T09:39:05.883Z,32.95
2018-07-04T09:42:33.140Z,33.10
2018-07-04T09:45:57.879Z,33.13
2018-07-04T09:49:24.289Z,33.26
2018-07-04T09:52:50.150Z,33.49
2018-07-04T09:56:16.103Z,33.73
2018-07-04T09:59:43.901Z,33.78
2018-07-04T10:03:08.971Z,33.76
2018-07-04T10:06:33.600Z,33.85
2018-07-04T10:09:58.634Z,33.81
2018-07-04T10:13:22.984Z,33.98
2018-07-04T10:16:47.230Z,34.12
2018-07-04T10:20:11.183Z,34.23
2018-07-04T10:23:35.207Z,34.47
2018-07-04T10:26:59.953Z,34.75
2018-07-04T10:30:24.668Z,34.90
2018-07-04T10:33:48.999Z,36.10
2018-07-04T10:37:13.246Z,35.36
2018-07-04T10:40:37.173Z,35.36
2018-07-04T10:44:01.175Z,35.33
2018-07-04T10:47:25.212Z,35.24
2018-07-04T10:50:50.410Z,36.14
2018-07-04T10:54:15.133Z,35.19
2018-07-04T10:57:39.201Z,35.13
2018-07-04T11:01:05.367Z,35.18
2018-07-04T11:04:29.440Z,35.41
2018-07-04T11:07:53.627Z,35.63
2018-07-04T11:11:23.559Z,36.78
2018-07-04T11:14:54.786Z,36.94
2018-07-04T11:18:20.931Z,37.21
2018-07-04T11:21:57.064Z,36.25
2018-07-04T11:25:32.040Z,36.08
2018-07-04T11:32:47.778Z,35.78
2018-07-04T11:36:12.891Z,35.85
2018-07-04T11:39:39.011Z,37.23
2018-07-04T11:43:05.070Z,36.58
2018-07-04T11:46:09.653Z,36.68
2018-07-04T11:51:39.092Z,36.99
2018-07-04T11:54:08.155Z,37.07
2018-07-04T11:56:38.976Z,37.04
2018-07-04T11:59:07.884Z,38.01
2018-07-04T12:01:40.561Z,37.26
2018-07-04T12:04:48.198Z,37.22
2018-07-04T12:07:34.578Z,38.13
2018-07-04T12:10:05.569Z,38.09
2018-07-04T12:12:34.279Z,37.09
2018-07-04T12:15:02.217Z,36.74
2018-07-04T12:17:30.088Z,36.79
2018-07-04T12:19:59.060Z,36.86
2018-07-04T12:22:26.936Z,36.90
2018-07-04T12:24:58.262Z,37.96
2018-07-04T12:27:26.145Z,37.26
2018-07-04T12:29:57.084Z,37.38
2018-07-04T12:32:32.430Z,37.45
2018-07-04T12:35:01.005Z,37.32
2018-07-04T12:37:28.991Z,36.90
2018-07-04T12:39:56.934Z,36.91
2018-07-04T12:42:25.166Z,36.90
2018-07-04T12:44:53.202Z,36.99
2018-07-04T12:47:21.601Z,37.03
2018-07-04T12:49:49.451Z,37.18
2018-07-04T12:52:17.537Z,37.30
2018-07-04T12:54:48.786Z,37.48
2018-07-04T12:58:13.885Z,37.54
2018-07-04T13:01:39.463Z,37.43
2018-07-04T13:05:03.471Z,38.70
2018-07-04T13:08:27.989Z,39.09
2018-07-04T13:11:52.839Z,38.37
2018-07-04T13:15:17.210Z,37.90
2018-07-04T13:18:43.290Z,37.99
2018-07-04T13:22:23.533Z,37.95
2018-07-04T13:25:48.027Z,38.23
2018-07-04T13:29:13.057Z,38.43
2018-07-04T13:32:41.253Z,38.38
2018-07-04T13:36:04.570Z,38.40
2018-07-04T13:39:28.444Z,38.75
2018-07-04T13:42:54.263Z,38.87
2018-07-04T13:46:18.658Z,39.06
2018-07-04T13:49:42.834Z,39.04
2018-07-04T13:53:07.872Z,39.02
2018-07-04T13:56:32.467Z,39.03
2018-07-04T13:59:57.180Z,39.16
2018-07-04T14:03:21.055Z,39.45
2018-07-04T14:06:45.039Z,39.68
2018-07-04T14:10:09.159Z,39.78
2018-07-04T14:17:32.709Z,39.69
2018-07-04T14:20:57.748Z,39.55
2018-07-04T14:24:27.210Z,39.69
2018-07-04T14:27:50.875Z,39.96
2018-07-04T14:31:14.883Z,40.05
2018-07-04T14:34:39.291Z,40.34
2018-07-04T14:38:03.338Z,40.54
2018-07-04T14:41:27.444Z,40.34
2018-07-04T14:44:54.149Z,40.23
2018-07-04T14:48:18.385Z,41.74
2018-07-04T14:51:42.554Z,40.95
2018-07-04T14:55:06.951Z,41.05
2018-07-04T14:58:38.059Z,41.54
2018-07-04T15:02:02.155Z,42.10
2018-07-04T15:05:26.991Z,42.53
2018-07-04T15:08:53.303Z,43.80
2018-07-04T15:12:18.095Z,44.22
2018-07-04T15:15:46.432Z,43.54
2018-07-04T15:19:11.666Z,43.60
2018-07-04T15:22:38.394Z,43.49
2018-07-04T15:26:04.463Z,43.27
2018-07-04T15:29:29.241Z,42.96
2018-07-04T15:32:54.259Z,42.71
2018-07-04T15:36:18.793Z,42.83
2018-07-04T15:39:44.098Z,42.68
2018-07-04T15:43:08.563Z,42.62
2018-07-04T15:46:32.699Z,42.52
2018-07-04T15:53:42.417Z,42.48
2018-07-04T15:57:07.054Z,42.20
2018-07-04T16:00:32.078Z,42.56
2018-07-04T16:03:59.002Z,43.00
2018-07-04T16:07:27.943Z,43.28
2018-07-04T16:10:53.732Z,43.34
2018-07-04T16:18:03.944Z,44.86
2018-07-04T16:21:28.916Z,43.21
2018-07-04T16:24:55.496Z,43.13
2018-07-04T16:28:21.499Z,43.36
2018-07-04T16:31:44.800Z,43.50
2018-07-04T16:35:08.518Z,43.57
2018-07-04T16:38:41.022Z,43.47
2018-07-04T16:42:05.791Z,42.39
2018-07-04T16:45:30.483Z,41.30
2018-07-04T16:48:55.452Z,40.59
2018-07-04T16:52:20.510Z,42.33
2018-07-04T16:55:47.029Z,40.97
2018-07-04T16:59:17.734Z,39.91
2018-07-04T17:02:44.327Z,39.25
2018-07-04T17:06:26.587Z,39.03
2018-07-04T17:09:51.467Z,38.08
2018-07-04T17:13:16.517Z,37.27
2018-07-04T17:16:40.667Z,36.42
2018-07-04T17:20:05.106Z,35.79
2018-07-04T17:23:29.222Z,35.28
2018-07-04T17:26:57.059Z,34.91
2018-07-04T17:30:30.162Z,34.63
2018-07-04T17:34:03.215Z,35.65
2018-07-04T17:37:28.595Z,35.14
2018-07-04T17:40:56.317Z,35.10
2018-07-04T17:44:20.389Z,34.98
2018-07-04T17:47:46.231Z,34.91
2018-07-04T17:51:10.272Z,34.88
2018-07-04T17:54:34.675Z,34.80
2018-07-04T17:57:58.830Z,34.63
2018-07-04T18:01:23.713Z,34.37
2018-07-04T18:04:50.073Z,34.07
2018-07-04T18:08:14.491Z,33.74
2018-07-04T18:11:38.729Z,33.41
2018-07-04T18:15:03.137Z,33.06
2018-07-04T18:18:28.036Z,32.77
2018-07-04T18:21:52.443Z,33.55
2018-07-04T18:25:18.505Z,32.54
2018-07-04T18:28:44.379Z,32.12
2018-07-04T18:32:24.805Z,31.80
2018-07-04T18:35:57.383Z,31.37
2018-07-04T18:39:29.170Z,31.03
2018-07-04T18:42:59.765Z,30.73
2018-07-04T18:46:42.705Z,30.43
2018-07-04T18:50:07.634Z,30.10
2018-07-04T18:53:32.225Z,30.81
2018-07-04T18:56:56.735Z,29.91
2018-07-04T19:00:33.315Z,30.45
2018-07-04T19:03:59.892Z,29.48
2018-07-04T19:07:24.829Z,29.10
2018-07-04T19:11:04.517Z,29.71
2018-07-04T19:18:13.420Z,28.47
2018-07-04T19:21:43.981Z,28.21
2018-07-04T19:25:12.529Z,27.98
2018-07-04T19:28:42.470Z,27.79
2018-07-04T19:32:19.064Z,27.55
2018-07-04T19:35:53.681Z,27.32
2018-07-04T19:39:33.284Z,27.11
2018-07-04T19:43:01.744Z,26.89
2018-07-04T19:46:30.092Z,26.71
2018-07-04T19:50:08.233Z,26.55
2018-07-04T19:53:42.323Z,26.39
2018-07-04T19:57:18.832Z,26.25
2018-07-04T20:00:43.725Z,26.09
2018-07-04T20:04:11.943Z,25.96
2018-07-04T20:07:38.371Z,26.61
2018-07-04T20:11:03.026Z,25.92
2018-07-04T20:14:40.293Z,25.69
2018-07-04T20:18:07.340Z,25.46
2018-07-04T20:21:32.774Z,25.31
2018-07-04T20:24:57.044Z,25.14
2018-07-04T20:28:21.501Z,24.98
2018-07-04T20:31:45.536Z,24.85
2018-07-04T20:35:11.121Z,24.74
2018-07-04T20:38:36.110Z,24.66
2018-07-04T20:42:00.869Z,25.41
2018-07-04T20:45:25.402Z,25.53
2018-07-04T20:48:49.777Z,24.83
2018-07-04T20:52:14.347Z,24.63
2018-07-04T20:55:39.734Z,24.52
2018-07-04T20:59:03.805Z,24.36
2018-07-04T21:02:28.071Z,24.19
2018-07-04T21:05:52.454Z,24.03
2018-07-04T21:09:26.198Z,23.86
2018-07-04T21:16:38.492Z,23.49
2018-07-04T21:20:07.668Z,23.33
2018-07-04T21:23:32.577Z,23.23
2018-07-04T21:27:14.514Z,23.11
2018-07-04T21:30:39.298Z,22.98
2018-07-04T21:34:03.859Z,22.86
2018-07-04T21:37:28.768Z,22.72
2018-07-04T21:40:53.359Z,23.36
2018-07-04T21:44:22.094Z,22.68
2018-07-04T21:47:50.808Z,22.46
2018-07-04T21:51:17.134Z,23.10
2018-07-04T21:54:50.356Z,22.44
2018-07-04T21:58:15.208Z,22.28
2018-07-04T22:01:39.497Z,22.19
2018-07-04T22:05:06.131Z,22.12
2018-07-04T22:08:30.977Z,22.05
2018-07-04T22:12:00.257Z,21.94
2018-07-04T22:15:25.130Z,22.63
2018-07-04T22:18:49.457Z,22.08
2018-07-04T22:22:14.422Z,22.00
2018-07-04T22:25:39.840Z,21.98
2018-07-04T22:29:06.070Z,21.97
2018-07-04T22:32:32.824Z,21.90
2018-07-04T22:35:57.379Z,22.51
2018-07-04T22:39:22.388Z,22.61
2018-07-04T22:42:48.426Z,21.93
2018-07-04T22:46:13.345Z,21.74
2018-07-04T22:49:38.524Z,21.61
2018-07-04T22:53:03.216Z,21.49
2018-07-04T22:56:32.812Z,21.39
2018-07-04T23:03:41.723Z,21.15
2018-07-04T23:07:06.383Z,21.06
2018-07-04T23:10:32.820Z,20.99
2018-07-04T23:13:57.787Z,21.67
2018-07-04T23:17:22.700Z,21.07
2018-07-04T23:20:46.685Z,21.68
2018-07-04T23:24:11.247Z,21.09
2018-07-04T23:27:35.995Z,20.98
2018-07-04T23:31:00.187Z,20.94
2018-07-04T23:34:25.163Z,20.92
2018-07-04T23:37:49.537Z,20.90
2018-07-04T23:41:13.471Z,21.59
2018-07-04T23:44:37.374Z,21.17
2018-07-04T23:48:01.383Z,21.09
2018-07-04T23:51:25.346Z,21.08
2018-07-04T23:54:51.967Z,21.11
2018-07-04T23:58:16.322Z,21.14
